createdAt,value
2018-12-14T00:01:22.482Z,-0.32
2018-12-14T00:03:51.698Z,-0.44
2018-12-14T00:06:20.919Z,-0.55
2018-12-14T00:08:49.946Z,-0.62
2018-12-14T00:11:19.183Z,-0.59
2018-12-14T00:13:48.155Z,-0.64
2018-12-14T00:16:17.259Z,-0.65
2018-12-14T00:18:46.338Z,-0.65
2018-12-14T00:21:15.487Z,-0.61
2018-12-14T00:23:45.158Z,-0.74
2018-12-14T00:26:14.363Z,-0.80
2018-12-14T00:28:43.539Z,-0.77
2018-12-14T00:31:12.755Z,-0.79
2018-12-14T00:33:41.870Z,-0.74
2018-12-14T00:36:11.068Z,-0.74
2018-12-14T00:38:40.294Z,-0.79
2018-12-14T00:41:09.430Z,-0.87
2018-12-14T00:43:38.600Z,-0.90
2018-12-14T00:46:10.508Z,-0.91
2018-12-14T00:48:39.602Z,-0.85
2018-12-14T00:51:08.735Z,-0.80
2018-12-14T00:53:37.882Z,-0.82
2018-12-14T00:56:07.119Z,-0.85
2018-12-14T00:58:36.099Z,-0.95
2018-12-14T01:01:05.465Z,-1.13
2018-12-14T01:03:35.145Z,-1.27
2018-12-14T01:06:04.266Z,-1.32
2018-12-14T01:08:33.379Z,-1.31
2018-12-14T01:11:02.605Z,-1.39
2018-12-14T01:13:31.914Z,-1.50
2018-12-14T01:16:01.115Z,-1.49
2018-12-14T01:18:30.295Z,-1.38
2018-12-14T01:20:59.385Z,-1.36
2018-12-14T01:23:28.422Z,-1.38
2018-12-14T01:25:57.706Z,-1.28
2018-12-14T01:28:27.738Z,-1.30
2018-12-14T01:30:56.796Z,-1.33
2018-12-14T01:33:26.015Z,-1.34
2018-12-14T01:35:55.205Z,-1.34
2018-12-14T01:38:24.522Z,-1.34
2018-12-14T01:40:53.738Z,-1.44
2018-12-14T01:43:22.945Z,-1.61
2018-12-14T01:45:52.165Z,-1.69
2018-12-14T01:48:21.358Z,-1.63
2018-12-14T01:50:50.428Z,-1.68
2018-12-14T01:53:21.738Z,-1.71
2018-12-14T01:55:50.833Z,-1.57
2018-12-14T01:58:19.981Z,-1.46
2018-12-14T02:00:49.154Z,-1.39
2018-12-14T02:03:18.539Z,-1.39
2018-12-14T02:05:47.752Z,-1.42
2018-12-14T02:08:18.939Z,-1.58
2018-12-14T02:11:08.793Z,-1.79
2018-12-14T02:13:37.811Z,-2.00
2018-12-14T02:16:32.673Z,-2.13
2018-12-14T02:19:02.759Z,-2.21
2018-12-14T02:21:32.850Z,-2.17
2018-12-14T02:24:01.968Z,-1.94
2018-12-14T02:26:31.139Z,-1.71
2018-12-14T02:29:00.766Z,-1.65
2018-12-14T02:31:29.915Z,-1.65
2018-12-14T02:33:59.070Z,-1.64
2018-12-14T02:36:28.109Z,-1.71
2018-12-14T02:38:57.293Z,-1.88
2018-12-14T02:41:26.395Z,-2.05
2018-12-14T02:43:56.359Z,-2.20
2018-12-14T02:46:35.964Z,-2.34
2018-12-14T02:49:05.167Z,-2.45
2018-12-14T02:51:34.702Z,-2.55
2018-12-14T02:54:03.882Z,-2.64
2018-12-14T02:56:33.041Z,-2.69
2018-12-14T02:59:02.406Z,-2.73
2018-12-14T03:01:58.893Z,-2.76
2018-12-14T03:04:38.006Z,-2.80
2018-12-14T03:07:06.956Z,-2.82
2018-12-14T03:09:36.130Z,-2.86
2018-12-14T03:12:05.141Z,-2.90
2018-12-14T03:14:34.345Z,-2.93
2018-12-14T03:17:03.530Z,-2.96
2018-12-14T03:19:32.513Z,-3.00
2018-12-14T03:22:01.515Z,-2.98
2018-12-14T03:25:00.673Z,-2.96
2018-12-14T03:27:39.064Z,-2.93
2018-12-14T03:30:09.692Z,-2.92
2018-12-14T03:38:33.738Z,-2.83
2018-12-14T03:41:02.857Z,-2.73
2018-12-14T03:43:31.965Z,-2.45
2018-12-14T03:46:01.015Z,-2.20
2018-12-14T03:48:30.079Z,-1.93
2018-12-14T03:50:59.823Z,-1.79
2018-12-14T03:53:28.808Z,-1.62
2018-12-14T03:55:57.976Z,-1.42
2018-12-14T03:58:26.951Z,-1.33
2018-12-14T04:00:56.099Z,-1.19
2018-12-14T04:03:25.322Z,-1.11
2018-12-14T04:05:55.595Z,-1.04
2018-12-14T04:08:24.620Z,-1.00
2018-12-14T04:10:53.786Z,-1.04
2018-12-14T04:13:22.880Z,-0.99
2018-12-14T04:15:51.817Z,-0.96
2018-12-14T04:18:20.854Z,-1.05
2018-12-14T04:20:49.900Z,-1.14
2018-12-14T04:23:19.083Z,-1.18
2018-12-14T04:25:48.044Z,-1.21
2018-12-14T04:28:17.130Z,-1.29
2018-12-14T04:30:46.384Z,-1.39
2018-12-14T04:33:16.315Z,-1.43
2018-12-14T04:35:45.668Z,-1.46
2018-12-14T04:38:14.834Z,-1.50
2018-12-14T04:40:44.183Z,-1.46
2018-12-14T04:43:16.869Z,-1.40
2018-12-14T04:45:45.801Z,-1.37
2018-12-14T04:48:14.795Z,-1.38
2018-12-14T04:50:43.825Z,-1.31
2018-12-14T04:53:12.770Z,-1.28
2018-12-14T04:55:44.765Z,-1.32
2018-12-14T04:58:14.282Z,-1.33
2018-12-14T05:00:43.188Z,-1.41
2018-12-14T05:03:12.334Z,-1.57
2018-12-14T05:05:41.480Z,-1.73
2018-12-14T05:08:10.911Z,-1.96
2018-12-14T05:10:40.823Z,-2.18
2018-12-14T05:13:34.614Z,-2.35
2018-12-14T05:16:03.565Z,-2.52
2018-12-14T05:18:32.617Z,-2.63
2018-12-14T05:21:01.758Z,-2.73
2018-12-14T05:23:30.834Z,-2.79
2018-12-14T05:25:59.853Z,-2.82
2018-12-14T05:28:28.917Z,-2.89
2018-12-14T05:30:59.227Z,-2.95
2018-12-14T05:33:28.342Z,-3.00
2018-12-14T05:40:11.730Z,-2.97
2018-12-14T05:42:40.775Z,-2.63
2018-12-14T05:45:11.693Z,-2.71
2018-12-14T05:47:40.727Z,-2.80
2018-12-14T05:50:09.851Z,-2.87
2018-12-14T05:52:39.007Z,-2.92
2018-12-14T05:55:08.154Z,-2.83
2018-12-14T05:57:37.211Z,-2.60
2018-12-14T06:00:09.405Z,-2.42
2018-12-14T06:02:38.463Z,-2.30
2018-12-14T06:05:07.715Z,-2.14
2018-12-14T06:07:36.775Z,-2.06
2018-12-14T06:10:06.910Z,-2.02
2018-12-14T06:12:36.547Z,-1.94
2018-12-14T06:15:06.175Z,-1.87
2018-12-14T06:17:35.616Z,-1.76
2018-12-14T06:20:04.971Z,-1.73
2018-12-14T06:22:34.075Z,-1.75
2018-12-14T06:25:03.283Z,-1.69
2018-12-14T06:27:32.790Z,-1.64
2018-12-14T06:30:01.996Z,-1.59
2018-12-14T06:32:35.310Z,-1.61
2018-12-14T06:35:04.474Z,-1.64
2018-12-14T06:37:33.526Z,-1.65
2018-12-14T06:40:02.838Z,-1.64
2018-12-14T06:42:31.979Z,-1.68
2018-12-14T06:45:01.144Z,-1.76
2018-12-14T06:47:31.099Z,-1.78
2018-12-14T06:50:00.299Z,-1.86
2018-12-14T06:52:29.463Z,-2.01
2018-12-14T06:54:58.551Z,-2.14
2018-12-14T06:57:27.725Z,-2.09
2018-12-14T06:59:56.733Z,-2.02
2018-12-14T07:02:25.888Z,-1.98
2018-12-14T07:04:55.034Z,-2.00
2018-12-14T07:07:24.087Z,-2.10
2018-12-14T07:09:53.927Z,-2.21
2018-12-14T07:12:23.890Z,-2.29
2018-12-14T07:14:53.018Z,-2.29
2018-12-14T07:17:22.178Z,-2.16
2018-12-14T07:19:52.690Z,-1.97
2018-12-14T07:22:21.902Z,-1.76
2018-12-14T07:24:50.909Z,-1.58
2018-12-14T07:27:20.116Z,-1.44
2018-12-14T07:29:49.238Z,-1.28
2018-12-14T07:32:18.315Z,-1.17
2018-12-14T07:34:47.431Z,-1.12
2018-12-14T07:37:18.615Z,-1.05
2018-12-14T07:39:47.639Z,-1.04
2018-12-14T07:42:16.823Z,-1.06
2018-12-14T07:44:46.024Z,-1.07
2018-12-14T07:47:15.936Z,-1.08
2018-12-14T07:49:44.949Z,-1.14
2018-12-14T07:52:14.114Z,-1.16
2018-12-14T07:54:43.198Z,-1.20
2018-12-14T07:57:12.335Z,-1.24
2018-12-14T07:59:41.502Z,-1.26
2018-12-14T08:02:10.603Z,-1.24
2018-12-14T08:04:39.993Z,-1.21
2018-12-14T08:07:09.183Z,-1.21
2018-12-14T08:09:38.279Z,-1.24
2018-12-14T08:12:07.387Z,-1.26
2018-12-14T08:14:37.327Z,-1.30
2018-12-14T08:17:06.479Z,-1.29
2018-12-14T08:19:38.883Z,-1.22
2018-12-14T08:22:07.884Z,-1.14
2018-12-14T08:24:44.517Z,-1.10
2018-12-14T08:27:16.682Z,-1.06
2018-12-14T08:29:45.802Z,-1.03
2018-12-14T08:32:15.954Z,-1.01
2018-12-14T08:34:50.796Z,-0.97
2018-12-14T08:37:16.155Z,-0.93
2018-12-14T08:39:45.439Z,-0.92
2018-12-14T08:42:15.522Z,-0.90
2018-12-14T08:44:45.444Z,-0.82
2018-12-14T08:47:14.627Z,-0.77
2018-12-14T08:49:43.733Z,-0.75
2018-12-14T08:52:12.899Z,-0.72
2018-12-14T08:54:44.195Z,-0.69
2018-12-14T08:57:13.447Z,-0.69
2018-12-14T08:59:42.562Z,-0.67
2018-12-14T09:02:11.880Z,-0.62
2018-12-14T09:04:44.659Z,-0.56
2018-12-14T09:07:13.819Z,-0.55
2018-12-14T09:09:42.926Z,-0.51
2018-12-14T09:12:12.007Z,-0.42
2018-12-14T09:14:42.370Z,-0.23
2018-12-14T09:17:11.560Z,0.04
2018-12-14T09:19:40.850Z,0.23
2018-12-14T09:24:35.623Z,0.32
2018-12-14T09:27:04.731Z,0.23
2018-12-14T09:29:33.804Z,0.17
2018-12-14T09:32:02.870Z,0.12
2018-12-14T09:34:32.343Z,0.09
2018-12-14T09:37:01.835Z,0.12
2018-12-14T09:39:30.960Z,0.16
2018-12-14T09:42:00.103Z,0.19
2018-12-14T09:44:29.154Z,0.22
2018-12-14T09:46:58.518Z,0.22
2018-12-14T09:49:28.067Z,0.22
2018-12-14T09:52:01.039Z,0.19
2018-12-14T09:54:30.082Z,0.16
2018-12-14T09:57:00.379Z,0.20
2018-12-14T09:59:29.911Z,0.26
2018-12-14T10:01:59.090Z,0.24
2018-12-14T10:04:28.219Z,0.24
2018-12-14T10:06:57.321Z,0.20
2018-12-14T10:09:26.403Z,0.17
2018-12-14T10:12:08.604Z,0.17
2018-12-14T10:15:12.242Z,0.24
2018-12-14T10:17:41.423Z,0.31
2018-12-14T10:20:11.107Z,0.42
2018-12-14T10:22:43.660Z,0.48
2018-12-14T10:25:16.563Z,0.53
2018-12-14T10:27:49.887Z,0.55
2018-12-14T10:30:22.876Z,0.57
2018-12-14T10:32:56.223Z,0.52
2018-12-14T10:35:29.039Z,0.54
2018-12-14T10:38:06.075Z,0.50
2018-12-14T10:40:39.192Z,0.47
2018-12-14T10:43:11.413Z,0.46
2018-12-14T10:45:44.623Z,0.51
2018-12-14T10:48:22.700Z,0.53
2018-12-14T10:50:51.746Z,0.60
2018-12-14T10:53:23.988Z,0.81
2018-12-14T10:56:00.802Z,1.06
2018-12-14T10:58:38.799Z,1.36
2018-12-14T11:01:16.919Z,1.66
2018-12-14T11:03:50.034Z,1.90
2018-12-14T11:06:23.322Z,2.14
2018-12-14T11:08:56.187Z,2.24
2018-12-14T11:11:29.567Z,2.28
2018-12-14T11:14:02.591Z,2.22
2018-12-14T11:16:35.475Z,2.14
2018-12-14T11:19:07.763Z,2.17
2018-12-14T11:21:40.102Z,2.25
2018-12-14T11:24:13.227Z,2.45
2018-12-14T11:26:46.219Z,2.71
2018-12-14T11:29:19.463Z,2.85
2018-12-14T11:31:54.246Z,2.88
2018-12-14T11:34:30.545Z,2.96
2018-12-14T11:37:03.643Z,3.06
2018-12-14T11:39:58.652Z,3.24
2018-12-14T11:42:36.103Z,3.39
2018-12-14T11:45:13.003Z,3.48
2018-12-14T11:47:46.250Z,3.45
2018-12-14T11:50:19.205Z,3.45
2018-12-14T11:52:56.353Z,3.59
2018-12-14T11:55:29.347Z,3.65
2018-12-14T11:58:03.650Z,3.80
2018-12-14T12:00:40.263Z,3.73
2018-12-14T12:03:13.247Z,3.60
2018-12-14T12:05:45.472Z,3.53
2018-12-14T12:08:22.832Z,3.19
2018-12-14T12:10:55.571Z,2.75
2018-12-14T12:13:27.838Z,2.59
2018-12-14T12:16:00.851Z,2.64
2018-12-14T12:18:34.833Z,2.61
2018-12-14T12:21:13.650Z,2.73
2018-12-14T12:23:45.911Z,2.73
2018-12-14T12:26:16.955Z,2.60
2018-12-14T12:28:50.111Z,2.33
2018-12-14T12:31:26.775Z,2.22
2018-12-14T12:33:59.732Z,2.35
2018-12-14T12:36:32.692Z,2.46
2018-12-14T12:39:10.437Z,2.62
2018-12-14T12:41:47.931Z,2.80
2018-12-14T12:44:20.511Z,2.91
2018-12-14T12:46:54.374Z,3.05
2018-12-14T12:49:27.609Z,3.20
2018-12-14T12:52:00.777Z,3.29
2018-12-14T12:54:39.311Z,3.25
2018-12-14T12:57:11.452Z,3.14
2018-12-14T12:59:46.939Z,2.90
2018-12-14T13:02:19.251Z,2.62
2018-12-14T13:04:52.371Z,2.53
2018-12-14T13:07:24.921Z,2.45
2018-12-14T13:09:59.399Z,2.49
2018-12-14T13:12:35.751Z,2.56
2018-12-14T13:15:13.691Z,2.67
2018-12-14T13:17:46.396Z,2.79
2018-12-14T13:20:19.412Z,2.81
2018-12-14T13:22:56.251Z,2.84
2018-12-14T13:25:28.580Z,2.74
2018-12-14T13:28:00.931Z,2.68
2018-12-14T13:30:34.081Z,2.59
2018-12-14T13:33:07.074Z,2.49
2018-12-14T13:35:40.031Z,2.45
2018-12-14T13:38:18.026Z,2.50
2018-12-14T13:40:51.038Z,2.45
2018-12-14T13:43:21.877Z,2.54
2018-12-14T13:45:53.108Z,2.48
2018-12-14T13:48:29.711Z,2.59
2018-12-14T13:51:06.555Z,2.53
2018-12-14T13:53:43.928Z,2.65
2018-12-14T13:56:16.574Z,2.61
2018-12-14T13:58:51.150Z,2.49
2018-12-14T14:01:28.570Z,2.32
2018-12-14T14:04:01.635Z,2.31
2018-12-14T14:06:34.467Z,2.34
2018-12-14T14:09:07.631Z,2.35
2018-12-14T14:11:40.424Z,2.32
2018-12-14T14:14:17.178Z,2.26
2018-12-14T14:16:51.815Z,2.26
2018-12-14T14:19:25.194Z,2.15
2018-12-14T14:21:58.454Z,2.11
2018-12-14T14:24:31.268Z,2.18
2018-12-14T14:27:04.170Z,2.05
2018-12-14T14:29:37.103Z,2.09
2018-12-14T14:32:10.951Z,2.04
2018-12-14T14:34:44.051Z,1.98
2018-12-14T14:37:21.294Z,1.98
2018-12-14T14:39:54.195Z,1.98
2018-12-14T14:42:27.411Z,1.93
2018-12-14T14:45:00.065Z,1.93
2018-12-14T14:47:33.071Z,1.88
2018-12-14T14:50:09.435Z,1.88
2018-12-14T14:52:42.850Z,1.85
2018-12-14T14:55:17.185Z,1.86
2018-12-14T14:57:50.192Z,1.81
2018-12-14T15:00:23.212Z,1.76
2018-12-14T15:02:55.990Z,1.69
2018-12-14T15:05:36.975Z,1.78
2018-12-14T15:08:10.031Z,1.70
2018-12-14T15:10:46.636Z,1.72
2018-12-14T15:13:21.472Z,1.66
2018-12-14T15:15:54.695Z,1.65
2018-12-14T15:18:27.434Z,1.60
2018-12-14T15:21:00.251Z,1.61
2018-12-14T15:23:33.170Z,1.60
2018-12-14T15:26:06.082Z,1.60
2018-12-14T15:28:39.171Z,1.54
2018-12-14T15:31:12.190Z,1.56
2018-12-14T15:33:45.396Z,1.55
2018-12-14T15:36:18.591Z,1.57
2018-12-14T15:38:51.610Z,1.56
2018-12-14T15:41:24.554Z,1.53
2018-12-14T15:43:57.618Z,1.56
2018-12-14T15:46:31.016Z,1.54
2018-12-14T15:49:03.736Z,1.55
2018-12-14T15:51:36.519Z,1.55
2018-12-14T15:54:09.742Z,1.52
2018-12-14T15:56:46.790Z,1.52
2018-12-14T15:59:21.080Z,1.52
2018-12-14T16:01:57.734Z,1.56
2018-12-14T16:04:34.186Z,1.56
2018-12-14T16:07:11.239Z,1.63
2018-12-14T16:09:43.311Z,1.60
2018-12-14T16:12:16.392Z,1.58
2018-12-14T16:14:49.467Z,1.57
2018-12-14T16:17:21.967Z,1.56
2018-12-14T16:19:55.549Z,1.56
2018-12-14T16:22:26.091Z,1.56
2018-12-14T16:24:58.726Z,1.56
2018-12-14T16:27:31.951Z,1.54
2018-12-14T16:30:05.116Z,1.53
2018-12-14T16:32:37.530Z,1.51
2018-12-14T16:35:10.697Z,1.48
2018-12-14T16:37:47.911Z,1.50
2018-12-14T16:40:22.287Z,1.50
2018-12-14T16:42:55.165Z,1.51
2018-12-14T16:45:28.471Z,1.51
2018-12-14T16:48:01.331Z,1.49
2018-12-14T16:50:34.473Z,1.46
2018-12-14T16:53:07.295Z,1.43
2018-12-14T16:55:40.612Z,1.45
2018-12-14T16:58:13.553Z,1.47
2018-12-14T17:00:47.615Z,1.45
2018-12-14T17:03:20.001Z,1.49
2018-12-14T17:05:57.029Z,1.51
2018-12-14T17:08:35.297Z,1.52
2018-12-14T17:11:08.723Z,1.51
2018-12-14T17:13:45.731Z,1.51
2018-12-14T17:16:22.698Z,1.53
2018-12-14T17:18:59.933Z,1.52
2018-12-14T17:21:32.887Z,1.50
2018-12-14T17:24:05.650Z,1.49
2018-12-14T17:26:39.026Z,1.47
2018-12-14T17:29:12.811Z,1.49
2018-12-14T17:31:49.479Z,1.48
2018-12-14T17:34:22.536Z,1.43
2018-12-14T17:36:55.435Z,1.41
2018-12-14T17:39:28.100Z,1.41
2018-12-14T17:42:01.084Z,1.44
2018-12-14T17:44:34.500Z,1.43
2018-12-14T17:47:07.055Z,1.49
2018-12-14T17:49:40.046Z,1.45
2018-12-14T17:52:13.870Z,1.41
2018-12-14T17:54:47.347Z,1.37
2018-12-14T17:57:21.120Z,1.34
2018-12-14T17:59:54.207Z,1.32
2018-12-14T18:02:27.462Z,1.33
2018-12-14T18:05:00.522Z,1.34
2018-12-14T18:07:33.727Z,1.35
2018-12-14T18:10:06.583Z,1.35
2018-12-14T18:12:39.523Z,1.38
2018-12-14T18:15:16.583Z,1.38
2018-12-14T18:17:53.247Z,1.38
2018-12-14T18:20:30.326Z,1.39
2018-12-14T18:23:03.364Z,1.41
2018-12-14T18:25:40.419Z,1.40
2018-12-14T18:28:13.623Z,1.37
2018-12-14T18:30:46.871Z,1.37
2018-12-14T18:33:19.999Z,1.38
2018-12-14T18:35:52.698Z,1.40
2018-12-14T18:38:29.532Z,1.42
2018-12-14T18:41:02.422Z,1.40
2018-12-14T18:43:39.267Z,1.39
2018-12-14T18:46:16.111Z,1.38
2018-12-14T18:48:49.611Z,1.40
2018-12-14T18:51:26.399Z,1.41
2018-12-14T18:54:03.519Z,1.42
2018-12-14T18:56:37.586Z,1.41
2018-12-14T18:59:11.019Z,1.42
2018-12-14T19:01:43.142Z,1.42
2018-12-14T19:04:16.639Z,1.40
2018-12-14T19:06:49.442Z,1.42
2018-12-14T19:09:22.332Z,1.38
2018-12-14T19:11:55.508Z,1.38
2018-12-14T19:14:28.514Z,1.37
2018-12-14T19:17:01.356Z,1.36
2018-12-14T19:19:34.508Z,1.38
2018-12-14T19:22:07.843Z,1.35
2018-12-14T19:24:39.319Z,1.35
2018-12-14T19:27:16.232Z,1.36
2018-12-14T19:29:49.339Z,1.36
2018-12-14T19:32:26.458Z,1.34
2018-12-14T19:34:59.479Z,1.32
2018-12-14T19:37:36.567Z,1.32
2018-12-14T19:40:11.008Z,1.32
2018-12-14T19:42:44.005Z,1.35
2018-12-14T19:45:21.103Z,1.36
2018-12-14T19:47:57.690Z,1.32
2018-12-14T19:50:31.111Z,1.31
2018-12-14T19:53:08.487Z,1.30
2018-12-14T19:55:41.624Z,1.30
2018-12-14T19:58:14.927Z,1.34
2018-12-14T20:00:47.984Z,1.34
2018-12-14T20:03:24.764Z,1.31
2018-12-14T20:05:57.799Z,1.32
2018-12-14T20:08:34.603Z,1.31
2018-12-14T20:11:07.755Z,1.31
2018-12-14T20:13:40.445Z,1.32
2018-12-14T20:16:13.996Z,1.31
2018-12-14T20:18:46.938Z,1.30
2018-12-14T20:21:19.910Z,1.29
2018-12-14T20:23:56.450Z,1.30
2018-12-14T20:26:27.519Z,1.30
2018-12-14T20:29:04.894Z,1.31
2018-12-14T20:31:38.647Z,1.30
2018-12-14T20:34:12.243Z,1.32
2018-12-14T20:36:49.397Z,1.33
2018-12-14T20:39:22.523Z,1.32
2018-12-14T20:41:59.280Z,1.32
2018-12-14T20:44:30.365Z,1.32
2018-12-14T20:47:07.379Z,1.32
2018-12-14T20:49:44.407Z,1.31
2018-12-14T20:52:17.968Z,1.30
2018-12-14T20:54:50.642Z,1.33
2018-12-14T20:57:27.419Z,1.32
2018-12-14T21:00:01.049Z,1.33
2018-12-14T21:02:38.059Z,1.33
2018-12-14T21:05:11.019Z,1.34
2018-12-14T21:07:47.919Z,1.31
2018-12-14T21:10:25.134Z,1.29
2018-12-14T21:12:58.139Z,1.33
2018-12-14T21:15:35.364Z,1.31
2018-12-14T21:18:12.254Z,1.31
2018-12-14T21:20:49.384Z,1.31
2018-12-14T21:23:22.711Z,1.30
2018-12-14T21:26:00.191Z,1.30
2018-12-14T21:28:33.260Z,1.27
2018-12-14T21:31:06.303Z,1.25
2018-12-14T21:33:43.482Z,1.27
2018-12-14T21:36:16.203Z,1.23
2018-12-14T21:38:53.156Z,1.23
2018-12-14T21:41:25.686Z,1.24
2018-12-14T21:44:02.628Z,1.26
2018-12-14T21:46:35.427Z,1.23
2018-12-14T21:49:06.143Z,1.21
2018-12-14T21:51:48.463Z,1.21
2018-12-14T21:54:20.975Z,1.20
2018-12-14T21:56:57.916Z,1.21
2018-12-14T21:59:34.665Z,1.25
2018-12-14T22:02:11.590Z,1.25
2018-12-14T22:04:48.723Z,1.23
2018-12-14T22:07:25.435Z,1.24
2018-12-14T22:09:58.303Z,1.23
2018-12-14T22:12:31.211Z,1.23
2018-12-14T22:15:08.016Z,1.24
2018-12-14T22:17:37.023Z,1.25
2018-12-14T22:20:13.303Z,1.22
2018-12-14T22:22:46.433Z,1.25
2018-12-14T22:25:18.825Z,1.23
2018-12-14T22:27:55.143Z,1.22
2018-12-14T22:30:27.968Z,1.22
2018-12-14T22:33:00.707Z,1.22
2018-12-14T22:35:46.967Z,1.21
2018-12-14T22:38:19.652Z,1.22
2018-12-14T22:40:56.280Z,1.22
2018-12-14T22:43:33.287Z,1.21
2018-12-14T22:46:06.130Z,1.22
2018-12-14T22:48:38.892Z,1.21
2018-12-14T22:51:11.420Z,1.21
2018-12-14T22:53:44.627Z,1.21
2018-12-14T22:56:15.387Z,1.18
2018-12-14T22:58:46.523Z,1.18
2018-12-14T23:01:23.291Z,1.18
2018-12-14T23:03:55.944Z,1.14
2018-12-14T23:06:32.798Z,1.17
2018-12-14T23:09:07.213Z,1.18
2018-12-14T23:11:43.990Z,1.17
2018-12-14T23:14:16.869Z,1.16
2018-12-14T23:16:53.651Z,1.18
2018-12-14T23:19:26.675Z,1.18
2018-12-14T23:21:55.838Z,1.17
2018-12-14T23:24:26.439Z,1.16
2018-12-14T23:27:03.019Z,1.17
2018-12-14T23:29:36.651Z,1.17
2018-12-14T23:32:13.122Z,1.17
2018-12-14T23:34:50.121Z,1.19
2018-12-14T23:37:22.812Z,1.18
2018-12-14T23:39:55.807Z,1.18
2018-12-14T23:42:26.658Z,1.18
2018-12-14T23:45:03.393Z,1.16
2018-12-14T23:47:32.482Z,1.16
2018-12-14T23:50:05.002Z,1.16
2018-12-14T23:55:13.834Z,1.14
2018-12-14T23:57:50.094Z,1.14
